sensor_id;sensor_type;location;lat;lon;timestamp;P1;durP1;ratioP1;P2;durP2;ratioP2
12603;SDS011;6367;52.508;13.284;2023-03-18T00:01:47;9.60;;;6.60;;
12603;SDS011;6367;52.508;13.284;2023-03-18T00:04:13;11.57;;;6.67;;
12603;SDS011;6367;52.508;13.284;2023-03-18T00:06:39;7.97;;;6.60;;
12603;SDS011;6367;52.508;13.284;2023-03-18T00:09:05;7.30;;;6.50;;
12603;SDS011;6367;52.508;13.284;2023-03-18T00:11:31;8.37;;;6.60;;
12603;SDS011;6367;52.508;13.284;2023-03-18T00:13:57;7.77;;;6.80;;
12603;SDS011;6367;52.508;13.284;2023-03-18T00:16:23;7.23;;;5.87;;
12603;SDS011;6367;52.508;13.284;2023-03-18T00:18:49;8.63;;;6.50;;
12603;SDS011;6367;52.508;13.284;2023-03-18T00:21:15;10.70;;;6.70;;
12603;SDS011;6367;52.508;13.284;2023-03-18T00:23:41;7.33;;;6.17;;
12603;SDS011;6367;52.508;13.284;2023-03-18T00:26:07;8.77;;;6.43;;
12603;SDS011;6367;52.508;13.284;2023-03-18T00:28:34;7.87;;;6.30;;
12603;SDS011;6367;52.508;13.284;2023-03-18T00:31:06;7.80;;;6.63;;
12603;SDS011;6367;52.508;13.284;2023-03-18T00:33:37;7.47;;;6.20;;
12603;SDS011;6367;52.508;13.284;2023-03-18T00:36:05;7.10;;;6.33;;
12603;SDS011;6367;52.508;13.284;2023-03-18T00:38:33;11.70;;;6.27;;
12603;SDS011;6367;52.508;13.284;2023-03-18T00:40:59;6.73;;;5.67;;
12603;SDS011;6367;52.508;13.284;2023-03-18T00:43:28;8.07;;;6.53;;
12603;SDS011;6367;52.508;13.284;2023-03-18T00:45:57;10.30;;;7.20;;
12603;SDS011;6367;52.508;13.284;2023-03-18T00:48:24;8.73;;;6.43;;
12603;SDS011;6367;52.508;13.284;2023-03-18T00:50:50;8.27;;;6.37;;
12603;SDS011;6367;52.508;13.284;2023-03-18T00:53:16;6.73;;;6.00;;
12603;SDS011;6367;52.508;13.284;2023-03-18T00:55:42;9.50;;;6.67;;
12603;SDS011;6367;52.508;13.284;2023-03-18T00:58:09;7.50;;;6.10;;
12603;SDS011;6367;52.508;13.284;2023-03-18T01:00:37;8.00;;;5.90;;
12603;SDS011;6367;52.508;13.284;2023-03-18T01:03:05;9.00;;;6.07;;
12603;SDS011;6367;52.508;13.284;2023-03-18T01:05:32;11.47;;;6.03;;
12603;SDS011;6367;52.508;13.284;2023-03-18T01:08:00;6.27;;;5.60;;
12603;SDS011;6367;52.508;13.284;2023-03-18T01:10:27;10.10;;;5.97;;
12603;SDS011;6367;52.508;13.284;2023-03-18T01:12:54;7.30;;;6.40;;
12603;SDS011;6367;52.508;13.284;2023-03-18T01:15:20;10.90;;;7.40;;
12603;SDS011;6367;52.508;13.284;2023-03-18T01:17:47;6.70;;;5.77;;
12603;SDS011;6367;52.508;13.284;2023-03-18T01:20:15;10.07;;;6.40;;
12603;SDS011;6367;52.508;13.284;2023-03-18T01:22:42;8.40;;;6.40;;
12603;SDS011;6367;52.508;13.284;2023-03-18T01:25:09;10.43;;;7.00;;
12603;SDS011;6367;52.508;13.284;2023-03-18T01:27:35;7.53;;;5.60;;
12603;SDS011;6367;52.508;13.284;2023-03-18T01:30:02;9.10;;;5.57;;
12603;SDS011;6367;52.508;13.284;2023-03-18T01:32:29;7.23;;;6.13;;
12603;SDS011;6367;52.508;13.284;2023-03-18T01:34:55;7.00;;;5.93;;
12603;SDS011;6367;52.508;13.284;2023-03-18T01:37:21;8.20;;;6.07;;
12603;SDS011;6367;52.508;13.284;2023-03-18T01:39:47;9.50;;;6.20;;
12603;SDS011;6367;52.508;13.284;2023-03-18T01:42:12;6.10;;;5.50;;
12603;SDS011;6367;52.508;13.284;2023-03-18T01:44:38;6.60;;;5.60;;
12603;SDS011;6367;52.508;13.284;2023-03-18T01:47:05;7.10;;;6.20;;
12603;SDS011;6367;52.508;13.284;2023-03-18T01:49:35;7.40;;;6.00;;
12603;SDS011;6367;52.508;13.284;2023-03-18T01:54:41;8.53;;;6.90;;
12603;SDS011;6367;52.508;13.284;2023-03-18T01:57:11;8.97;;;5.60;;
12603;SDS011;6367;52.508;13.284;2023-03-18T01:59:39;6.03;;;5.10;;
12603;SDS011;6367;52.508;13.284;2023-03-18T02:02:07;6.83;;;5.40;;
12603;SDS011;6367;52.508;13.284;2023-03-18T02:04:38;7.63;;;5.50;;
12603;SDS011;6367;52.508;13.284;2023-03-18T02:07:06;6.30;;;5.70;;
12603;SDS011;6367;52.508;13.284;2023-03-18T02:09:37;7.60;;;5.97;;
12603;SDS011;6367;52.508;13.284;2023-03-18T02:12:03;8.20;;;5.87;;
12603;SDS011;6367;52.508;13.284;2023-03-18T02:14:30;10.53;;;6.20;;
12603;SDS011;6367;52.508;13.284;2023-03-18T02:25:41;6.93;;;5.33;;
12603;SDS011;6367;52.508;13.284;2023-03-18T02:27:49;9.10;;;5.67;;
12603;SDS011;6367;52.508;13.284;2023-03-18T02:30:22;5.80;;;5.00;;
12603;SDS011;6367;52.508;13.284;2023-03-18T02:32:52;7.60;;;5.60;;
12603;SDS011;6367;52.508;13.284;2023-03-18T02:35:20;7.83;;;5.13;;
12603;SDS011;6367;52.508;13.284;2023-03-18T02:37:46;8.87;;;6.43;;
12603;SDS011;6367;52.508;13.284;2023-03-18T02:42:46;7.97;;;6.10;;
12603;SDS011;6367;52.508;13.284;2023-03-18T02:45:18;8.30;;;5.80;;
12603;SDS011;6367;52.508;13.284;2023-03-18T02:48:11;8.40;;;5.93;;
12603;SDS011;6367;52.508;13.284;2023-03-18T02:50:44;7.03;;;5.60;;
12603;SDS011;6367;52.508;13.284;2023-03-18T02:53:12;7.77;;;5.50;;
12603;SDS011;6367;52.508;13.284;2023-03-18T02:55:38;7.73;;;5.40;;
12603;SDS011;6367;52.508;13.284;2023-03-18T02:58:04;7.37;;;6.07;;
12603;SDS011;6367;52.508;13.284;2023-03-18T03:00:31;9.27;;;5.83;;
12603;SDS011;6367;52.508;13.284;2023-03-18T03:02:57;10.17;;;5.70;;
12603;SDS011;6367;52.508;13.284;2023-03-18T03:05:23;7.07;;;5.10;;
12603;SDS011;6367;52.508;13.284;2023-03-18T03:07:49;9.60;;;6.00;;
12603;SDS011;6367;52.508;13.284;2023-03-18T03:10:15;7.10;;;5.13;;
12603;SDS011;6367;52.508;13.284;2023-03-18T03:12:40;10.50;;;6.00;;
12603;SDS011;6367;52.508;13.284;2023-03-18T03:15:06;5.70;;;4.87;;
12603;SDS011;6367;52.508;13.284;2023-03-18T03:17:33;7.60;;;5.40;;
12603;SDS011;6367;52.508;13.284;2023-03-18T03:19:59;7.80;;;5.10;;
12603;SDS011;6367;52.508;13.284;2023-03-18T03:22:25;8.30;;;5.80;;
12603;SDS011;6367;52.508;13.284;2023-03-18T03:24:52;8.37;;;5.30;;
12603;SDS011;6367;52.508;13.284;2023-03-18T03:27:18;7.70;;;5.47;;
12603;SDS011;6367;52.508;13.284;2023-03-18T03:29:44;6.83;;;5.80;;
12603;SDS011;6367;52.508;13.284;2023-03-18T03:32:09;9.20;;;5.60;;
12603;SDS011;6367;52.508;13.284;2023-03-18T03:34:35;9.07;;;6.07;;
12603;SDS011;6367;52.508;13.284;2023-03-18T03:37:02;6.47;;;5.47;;
12603;SDS011;6367;52.508;13.284;2023-03-18T03:39:28;13.13;;;5.40;;
12603;SDS011;6367;52.508;13.284;2023-03-18T03:41:53;6.03;;;5.30;;
12603;SDS011;6367;52.508;13.284;2023-03-18T03:44:19;7.60;;;5.40;;
12603;SDS011;6367;52.508;13.284;2023-03-18T03:46:45;6.30;;;5.07;;
12603;SDS011;6367;52.508;13.284;2023-03-18T03:49:12;6.50;;;5.67;;
12603;SDS011;6367;52.508;13.284;2023-03-18T03:51:37;7.70;;;5.57;;
12603;SDS011;6367;52.508;13.284;2023-03-18T03:54:03;5.60;;;4.87;;
12603;SDS011;6367;52.508;13.284;2023-03-18T03:56:29;8.43;;;6.00;;
12603;SDS011;6367;52.508;13.284;2023-03-18T03:58:56;7.00;;;5.20;;
12603;SDS011;6367;52.508;13.284;2023-03-18T04:01:22;7.60;;;4.97;;
12603;SDS011;6367;52.508;13.284;2023-03-18T04:03:47;6.57;;;4.97;;
12603;SDS011;6367;52.508;13.284;2023-03-18T04:06:15;9.40;;;5.90;;
12603;SDS011;6367;52.508;13.284;2023-03-18T04:08:41;6.30;;;5.30;;
12603;SDS011;6367;52.508;13.284;2023-03-18T04:11:07;7.20;;;5.07;;
12603;SDS011;6367;52.508;13.284;2023-03-18T04:13:32;7.23;;;5.13;;
12603;SDS011;6367;52.508;13.284;2023-03-18T04:15:58;5.63;;;4.60;;
12603;SDS011;6367;52.508;13.284;2023-03-18T04:18:27;6.33;;;5.30;;
12603;SDS011;6367;52.508;13.284;2023-03-18T04:20:53;6.80;;;5.83;;
12603;SDS011;6367;52.508;13.284;2023-03-18T04:23:19;7.70;;;5.57;;
12603;SDS011;6367;52.508;13.284;2023-03-18T04:25:44;7.03;;;5.97;;
12603;SDS011;6367;52.508;13.284;2023-03-18T04:28:11;6.00;;;4.90;;
12603;SDS011;6367;52.508;13.284;2023-03-18T04:30:39;7.20;;;5.30;;
12603;SDS011;6367;52.508;13.284;2023-03-18T04:33:04;7.57;;;6.23;;
12603;SDS011;6367;52.508;13.284;2023-03-18T04:35:30;5.47;;;4.13;;
12603;SDS011;6367;52.508;13.284;2023-03-18T04:37:56;5.63;;;5.00;;
12603;SDS011;6367;52.508;13.284;2023-03-18T04:40:22;8.33;;;6.43;;
12603;SDS011;6367;52.508;13.284;2023-03-18T04:42:48;7.20;;;5.27;;
12603;SDS011;6367;52.508;13.284;2023-03-18T04:45:14;7.47;;;5.27;;
12603;SDS011;6367;52.508;13.284;2023-03-18T04:47:41;9.00;;;5.50;;
12603;SDS011;6367;52.508;13.284;2023-03-18T04:50:07;6.07;;;5.47;;
12603;SDS011;6367;52.508;13.284;2023-03-18T04:52:36;7.17;;;5.23;;
12603;SDS011;6367;52.508;13.284;2023-03-18T04:55:06;7.50;;;5.10;;
12603;SDS011;6367;52.508;13.284;2023-03-18T04:57:33;8.57;;;5.87;;
12603;SDS011;6367;52.508;13.284;2023-03-18T05:00:02;8.30;;;5.47;;
12603;SDS011;6367;52.508;13.284;2023-03-18T05:02:30;6.23;;;5.40;;
12603;SDS011;6367;52.508;13.284;2023-03-18T05:04:56;7.90;;;5.23;;
12603;SDS011;6367;52.508;13.284;2023-03-18T05:07:22;6.80;;;5.10;;
12603;SDS011;6367;52.508;13.284;2023-03-18T05:09:47;9.00;;;5.23;;
12603;SDS011;6367;52.508;13.284;2023-03-18T05:12:13;8.57;;;5.70;;
12603;SDS011;6367;52.508;13.284;2023-03-18T05:14:40;7.40;;;5.47;;
12603;SDS011;6367;52.508;13.284;2023-03-18T05:17:07;8.90;;;5.70;;
12603;SDS011;6367;52.508;13.284;2023-03-18T05:19:39;9.20;;;6.07;;
12603;SDS011;6367;52.508;13.284;2023-03-18T05:22:06;8.33;;;5.60;;
12603;SDS011;6367;52.508;13.284;2023-03-18T05:24:32;6.57;;;5.10;;
12603;SDS011;6367;52.508;13.284;2023-03-18T05:26:58;8.43;;;4.93;;
12603;SDS011;6367;52.508;13.284;2023-03-18T05:29:24;6.33;;;5.60;;
12603;SDS011;6367;52.508;13.284;2023-03-18T05:31:50;10.73;;;5.43;;
12603;SDS011;6367;52.508;13.284;2023-03-18T05:34:15;8.10;;;6.17;;
12603;SDS011;6367;52.508;13.284;2023-03-18T05:36:41;7.63;;;5.37;;
12603;SDS011;6367;52.508;13.284;2023-03-18T05:39:08;8.80;;;5.10;;
12603;SDS011;6367;52.508;13.284;2023-03-18T05:41:34;7.60;;;5.40;;
12603;SDS011;6367;52.508;13.284;2023-03-18T05:44:00;6.47;;;5.30;;
12603;SDS011;6367;52.508;13.284;2023-03-18T05:46:26;8.00;;;5.80;;
12603;SDS011;6367;52.508;13.284;2023-03-18T05:48:52;7.80;;;5.37;;
12603;SDS011;6367;52.508;13.284;2023-03-18T05:51:18;10.60;;;4.83;;
12603;SDS011;6367;52.508;13.284;2023-03-18T05:53:44;5.97;;;5.10;;
12603;SDS011;6367;52.508;13.284;2023-03-18T05:56:10;6.90;;;5.30;;
12603;SDS011;6367;52.508;13.284;2023-03-18T05:58:36;7.80;;;5.73;;
12603;SDS011;6367;52.508;13.284;2023-03-18T06:01:02;7.30;;;5.30;;
12603;SDS011;6367;52.508;13.284;2023-03-18T06:03:28;8.33;;;5.83;;
12603;SDS011;6367;52.508;13.284;2023-03-18T06:05:54;9.87;;;6.00;;
12603;SDS011;6367;52.508;13.284;2023-03-18T06:08:20;6.37;;;5.63;;
12603;SDS011;6367;52.508;13.284;2023-03-18T06:10:46;10.90;;;5.97;;
12603;SDS011;6367;52.508;13.284;2023-03-18T06:13:12;8.20;;;6.10;;
12603;SDS011;6367;52.508;13.284;2023-03-18T06:15:39;8.80;;;5.83;;
12603;SDS011;6367;52.508;13.284;2023-03-18T06:18:05;9.97;;;7.10;;
12603;SDS011;6367;52.508;13.284;2023-03-18T06:20:30;8.73;;;5.60;;
12603;SDS011;6367;52.508;13.284;2023-03-18T06:22:56;6.70;;;5.53;;
12603;SDS011;6367;52.508;13.284;2023-03-18T06:25:22;10.10;;;6.30;;
12603;SDS011;6367;52.508;13.284;2023-03-18T06:27:48;6.93;;;5.70;;
12603;SDS011;6367;52.508;13.284;2023-03-18T06:30:15;7.33;;;5.73;;
12603;SDS011;6367;52.508;13.284;2023-03-18T06:32:42;8.50;;;6.30;;
12603;SDS011;6367;52.508;13.284;2023-03-18T06:35:08;7.53;;;6.00;;
12603;SDS011;6367;52.508;13.284;2023-03-18T06:37:43;9.00;;;6.60;;
12603;SDS011;6367;52.508;13.284;2023-03-18T06:40:09;9.87;;;6.77;;
12603;SDS011;6367;52.508;13.284;2023-03-18T06:42:36;9.90;;;6.10;;
12603;SDS011;6367;52.508;13.284;2023-03-18T06:45:02;8.00;;;5.63;;
12603;SDS011;6367;52.508;13.284;2023-03-18T06:47:27;8.00;;;6.37;;
12603;SDS011;6367;52.508;13.284;2023-03-18T06:49:53;9.37;;;6.83;;
12603;SDS011;6367;52.508;13.284;2023-03-18T06:52:20;7.70;;;5.60;;
12603;SDS011;6367;52.508;13.284;2023-03-18T06:54:47;6.70;;;5.63;;
12603;SDS011;6367;52.508;13.284;2023-03-18T06:57:13;10.50;;;6.50;;
12603;SDS011;6367;52.508;13.284;2023-03-18T06:59:39;7.43;;;5.70;;
12603;SDS011;6367;52.508;13.284;2023-03-18T07:02:04;7.30;;;5.97;;
12603;SDS011;6367;52.508;13.284;2023-03-18T07:04:32;9.20;;;6.30;;
12603;SDS011;6367;52.508;13.284;2023-03-18T07:07:00;7.70;;;6.20;;
12603;SDS011;6367;52.508;13.284;2023-03-18T07:09:26;9.23;;;6.40;;
12603;SDS011;6367;52.508;13.284;2023-03-18T07:11:52;7.23;;;5.60;;
12603;SDS011;6367;52.508;13.284;2023-03-18T07:14:18;7.90;;;5.63;;
12603;SDS011;6367;52.508;13.284;2023-03-18T07:16:44;8.13;;;6.20;;
12603;SDS011;6367;52.508;13.284;2023-03-18T07:19:10;6.33;;;5.57;;
12603;SDS011;6367;52.508;13.284;2023-03-18T07:21:36;8.60;;;6.13;;
12603;SDS011;6367;52.508;13.284;2023-03-18T07:24:02;9.03;;;7.10;;
12603;SDS011;6367;52.508;13.284;2023-03-18T07:26:28;8.30;;;6.30;;
12603;SDS011;6367;52.508;13.284;2023-03-18T07:28:54;8.43;;;6.20;;
12603;SDS011;6367;52.508;13.284;2023-03-18T07:31:20;7.30;;;5.90;;
12603;SDS011;6367;52.508;13.284;2023-03-18T07:33:45;8.63;;;6.03;;
12603;SDS011;6367;52.508;13.284;2023-03-18T07:36:11;7.70;;;6.27;;
12603;SDS011;6367;52.508;13.284;2023-03-18T07:38:37;7.50;;;5.90;;
12603;SDS011;6367;52.508;13.284;2023-03-18T07:41:04;7.33;;;5.80;;
12603;SDS011;6367;52.508;13.284;2023-03-18T07:43:30;8.73;;;6.10;;
12603;SDS011;6367;52.508;13.284;2023-03-18T07:45:56;7.80;;;6.30;;
12603;SDS011;6367;52.508;13.284;2023-03-18T07:48:24;10.77;;;6.53;;
12603;SDS011;6367;52.508;13.284;2023-03-18T07:50:50;6.53;;;5.83;;
12603;SDS011;6367;52.508;13.284;2023-03-18T07:53:16;7.27;;;5.30;;
12603;SDS011;6367;52.508;13.284;2023-03-18T07:55:42;7.00;;;5.60;;
12603;SDS011;6367;52.508;13.284;2023-03-18T07:58:08;8.50;;;5.83;;
12603;SDS011;6367;52.508;13.284;2023-03-18T08:00:34;6.57;;;5.60;;
12603;SDS011;6367;52.508;13.284;2023-03-18T08:03:00;8.93;;;7.27;;
12603;SDS011;6367;52.508;13.284;2023-03-18T08:05:26;9.50;;;5.60;;
12603;SDS011;6367;52.508;13.284;2023-03-18T08:07:52;6.53;;;5.30;;
12603;SDS011;6367;52.508;13.284;2023-03-18T08:10:18;7.17;;;6.47;;
12603;SDS011;6367;52.508;13.284;2023-03-18T08:12:44;7.70;;;6.07;;
12603;SDS011;6367;52.508;13.284;2023-03-18T08:15:10;7.43;;;5.73;;
12603;SDS011;6367;52.508;13.284;2023-03-18T08:17:40;7.03;;;5.03;;
12603;SDS011;6367;52.508;13.284;2023-03-18T08:20:06;7.60;;;5.60;;
12603;SDS011;6367;52.508;13.284;2023-03-18T08:22:32;9.97;;;5.57;;
12603;SDS011;6367;52.508;13.284;2023-03-18T08:24:58;5.97;;;5.20;;
12603;SDS011;6367;52.508;13.284;2023-03-18T08:27:24;6.30;;;5.60;;
12603;SDS011;6367;52.508;13.284;2023-03-18T08:29:49;5.93;;;5.33;;
12603;SDS011;6367;52.508;13.284;2023-03-18T08:32:15;7.80;;;5.50;;
12603;SDS011;6367;52.508;13.284;2023-03-18T08:34:41;6.40;;;4.73;;
12603;SDS011;6367;52.508;13.284;2023-03-18T08:37:07;7.07;;;5.87;;
12603;SDS011;6367;52.508;13.284;2023-03-18T08:39:33;6.33;;;5.03;;
12603;SDS011;6367;52.508;13.284;2023-03-18T08:42:01;5.67;;;4.83;;
12603;SDS011;6367;52.508;13.284;2023-03-18T08:44:28;5.60;;;5.00;;
12603;SDS011;6367;52.508;13.284;2023-03-18T08:46:55;6.73;;;5.20;;
12603;SDS011;6367;52.508;13.284;2023-03-18T08:49:21;6.70;;;5.90;;
12603;SDS011;6367;52.508;13.284;2023-03-18T08:51:48;6.40;;;5.47;;
12603;SDS011;6367;52.508;13.284;2023-03-18T08:54:14;5.43;;;4.63;;
12603;SDS011;6367;52.508;13.284;2023-03-18T08:56:40;5.70;;;5.10;;
12603;SDS011;6367;52.508;13.284;2023-03-18T08:59:06;7.13;;;5.20;;
12603;SDS011;6367;52.508;13.284;2023-03-18T09:01:33;6.73;;;5.27;;
12603;SDS011;6367;52.508;13.284;2023-03-18T09:03:58;6.47;;;5.37;;
12603;SDS011;6367;52.508;13.284;2023-03-18T09:06:24;5.90;;;5.27;;
12603;SDS011;6367;52.508;13.284;2023-03-18T09:08:51;5.77;;;5.10;;
12603;SDS011;6367;52.508;13.284;2023-03-18T09:11:17;7.60;;;5.47;;
12603;SDS011;6367;52.508;13.284;2023-03-18T09:13:43;5.73;;;4.80;;
12603;SDS011;6367;52.508;13.284;2023-03-18T09:16:09;5.60;;;5.00;;
12603;SDS011;6367;52.508;13.284;2023-03-18T09:18:35;5.67;;;5.00;;
12603;SDS011;6367;52.508;13.284;2023-03-18T09:21:01;6.03;;;5.43;;
12603;SDS011;6367;52.508;13.284;2023-03-18T09:23:27;5.13;;;4.60;;
12603;SDS011;6367;52.508;13.284;2023-03-18T09:25:53;8.93;;;5.13;;
12603;SDS011;6367;52.508;13.284;2023-03-18T09:28:19;6.03;;;5.43;;
12603;SDS011;6367;52.508;13.284;2023-03-18T09:30:45;7.30;;;4.67;;
12603;SDS011;6367;52.508;13.284;2023-03-18T09:33:15;6.83;;;5.17;;
12603;SDS011;6367;52.508;13.284;2023-03-18T09:35:41;7.70;;;5.63;;
12603;SDS011;6367;52.508;13.284;2023-03-18T09:38:11;5.80;;;4.43;;
12603;SDS011;6367;52.508;13.284;2023-03-18T09:40:44;6.10;;;4.80;;
12603;SDS011;6367;52.508;13.284;2023-03-18T09:46:04;5.47;;;4.97;;
12603;SDS011;6367;52.508;13.284;2023-03-18T09:57:01;5.43;;;4.70;;
12603;SDS011;6367;52.508;13.284;2023-03-18T09:59:29;7.00;;;5.33;;
12603;SDS011;6367;52.508;13.284;2023-03-18T10:01:56;7.87;;;4.67;;
12603;SDS011;6367;52.508;13.284;2023-03-18T10:04:23;7.53;;;5.00;;
12603;SDS011;6367;52.508;13.284;2023-03-18T10:07:01;5.97;;;4.77;;
12603;SDS011;6367;52.508;13.284;2023-03-18T10:09:35;5.90;;;4.57;;
12603;SDS011;6367;52.508;13.284;2023-03-18T10:15:00;5.20;;;4.43;;
12603;SDS011;6367;52.508;13.284;2023-03-18T10:17:47;5.73;;;4.50;;
12603;SDS011;6367;52.508;13.284;2023-03-18T10:23:38;7.80;;;5.30;;
12603;SDS011;6367;52.508;13.284;2023-03-18T10:26:37;6.60;;;5.53;;
12603;SDS011;6367;52.508;13.284;2023-03-18T10:37:56;6.90;;;4.87;;
12603;SDS011;6367;52.508;13.284;2023-03-18T10:40:31;8.90;;;5.17;;
12603;SDS011;6367;52.508;13.284;2023-03-18T10:43:00;5.60;;;4.70;;
12603;SDS011;6367;52.508;13.284;2023-03-18T10:45:28;9.50;;;5.30;;
12603;SDS011;6367;52.508;13.284;2023-03-18T10:47:58;6.50;;;5.37;;
12603;SDS011;6367;52.508;13.284;2023-03-18T10:50:38;6.00;;;4.47;;
12603;SDS011;6367;52.508;13.284;2023-03-18T10:56:06;6.37;;;5.07;;
12603;SDS011;6367;52.508;13.284;2023-03-18T10:58:37;6.87;;;5.27;;
12603;SDS011;6367;52.508;13.284;2023-03-18T11:01:08;6.93;;;5.10;;
12603;SDS011;6367;52.508;13.284;2023-03-18T11:06:23;5.63;;;5.00;;
12603;SDS011;6367;52.508;13.284;2023-03-18T11:09:07;6.50;;;4.70;;
12603;SDS011;6367;52.508;13.284;2023-03-18T11:11:34;8.03;;;5.40;;
12603;SDS011;6367;52.508;13.284;2023-03-18T11:14:04;5.73;;;4.90;;
12603;SDS011;6367;52.508;13.284;2023-03-18T11:16:35;6.03;;;5.03;;
12603;SDS011;6367;52.508;13.284;2023-03-18T11:21:59;7.47;;;5.03;;
12603;SDS011;6367;52.508;13.284;2023-03-18T11:24:35;7.40;;;4.50;;
12603;SDS011;6367;52.508;13.284;2023-03-18T11:29:43;5.70;;;4.30;;
12603;SDS011;6367;52.508;13.284;2023-03-18T11:32:30;5.50;;;4.40;;
12603;SDS011;6367;52.508;13.284;2023-03-18T11:35:01;5.07;;;4.30;;
12603;SDS011;6367;52.508;13.284;2023-03-18T11:37:34;7.50;;;4.50;;
12603;SDS011;6367;52.508;13.284;2023-03-18T11:40:05;5.30;;;3.63;;
12603;SDS011;6367;52.508;13.284;2023-03-18T11:42:37;5.70;;;3.90;;
12603;SDS011;6367;52.508;13.284;2023-03-18T11:45:17;7.30;;;4.80;;
12603;SDS011;6367;52.508;13.284;2023-03-18T11:47:50;5.80;;;3.83;;
12603;SDS011;6367;52.508;13.284;2023-03-18T11:50:19;6.67;;;4.90;;
12603;SDS011;6367;52.508;13.284;2023-03-18T11:56:20;4.47;;;4.07;;
12603;SDS011;6367;52.508;13.284;2023-03-18T12:01:16;6.00;;;3.90;;
12603;SDS011;6367;52.508;13.284;2023-03-18T12:09:40;5.33;;;3.70;;
12603;SDS011;6367;52.508;13.284;2023-03-18T12:12:21;6.03;;;3.87;;
12603;SDS011;6367;52.508;13.284;2023-03-18T12:15:03;5.93;;;5.33;;
12603;SDS011;6367;52.508;13.284;2023-03-18T12:20:49;4.23;;;3.83;;
12603;SDS011;6367;52.508;13.284;2023-03-18T12:46:24;6.30;;;3.50;;
12603;SDS011;6367;52.508;13.284;2023-03-18T12:51:33;4.47;;;3.43;;
12603;SDS011;6367;52.508;13.284;2023-03-18T12:54:15;4.13;;;3.60;;
12603;SDS011;6367;52.508;13.284;2023-03-18T12:56:45;7.10;;;3.40;;
12603;SDS011;6367;52.508;13.284;2023-03-18T12:59:22;5.50;;;3.00;;
12603;SDS011;6367;52.508;13.284;2023-03-18T13:04:30;4.23;;;3.17;;
12603;SDS011;6367;52.508;13.284;2023-03-18T13:12:11;3.60;;;3.20;;
12603;SDS011;6367;52.508;13.284;2023-03-18T13:20:33;3.87;;;3.43;;
12603;SDS011;6367;52.508;13.284;2023-03-18T13:25:39;3.97;;;3.57;;
12603;SDS011;6367;52.508;13.284;2023-03-18T13:28:59;4.07;;;3.43;;
12603;SDS011;6367;52.508;13.284;2023-03-18T13:31:45;4.33;;;3.57;;
12603;SDS011;6367;52.508;13.284;2023-03-18T13:47:30;3.33;;;3.03;;
12603;SDS011;6367;52.508;13.284;2023-03-18T13:49:59;4.63;;;4.23;;
12603;SDS011;6367;52.508;13.284;2023-03-18T13:52:35;3.83;;;3.53;;
12603;SDS011;6367;52.508;13.284;2023-03-18T13:55:11;3.20;;;2.73;;
12603;SDS011;6367;52.508;13.284;2023-03-18T13:57:54;5.23;;;3.33;;
12603;SDS011;6367;52.508;13.284;2023-03-18T14:01:34;4.53;;;3.50;;
12603;SDS011;6367;52.508;13.284;2023-03-18T14:13:43;4.87;;;4.47;;
12603;SDS011;6367;52.508;13.284;2023-03-18T14:16:26;4.37;;;3.77;;
12603;SDS011;6367;52.508;13.284;2023-03-18T14:18:57;5.17;;;4.50;;
12603;SDS011;6367;52.508;13.284;2023-03-18T14:21:28;5.77;;;4.40;;
12603;SDS011;6367;52.508;13.284;2023-03-18T14:29:24;4.07;;;3.67;;
12603;SDS011;6367;52.508;13.284;2023-03-18T14:32:34;5.47;;;4.97;;
12603;SDS011;6367;52.508;13.284;2023-03-18T14:35:03;4.80;;;4.27;;
12603;SDS011;6367;52.508;13.284;2023-03-18T14:38:03;5.13;;;4.27;;
12603;SDS011;6367;52.508;13.284;2023-03-18T14:40:37;4.80;;;4.40;;
12603;SDS011;6367;52.508;13.284;2023-03-18T14:43:50;4.40;;;3.80;;
12603;SDS011;6367;52.508;13.284;2023-03-18T14:46:07;5.63;;;4.73;;
12603;SDS011;6367;52.508;13.284;2023-03-18T14:48:43;5.60;;;4.87;;
12603;SDS011;6367;52.508;13.284;2023-03-18T14:51:13;6.20;;;4.57;;
12603;SDS011;6367;52.508;13.284;2023-03-18T14:54:03;4.90;;;4.13;;
12603;SDS011;6367;52.508;13.284;2023-03-18T14:56:37;3.27;;;3.00;;
12603;SDS011;6367;52.508;13.284;2023-03-18T14:59:04;4.80;;;4.30;;
12603;SDS011;6367;52.508;13.284;2023-03-18T15:01:35;6.60;;;4.03;;
12603;SDS011;6367;52.508;13.284;2023-03-18T15:04:02;4.60;;;4.00;;
12603;SDS011;6367;52.508;13.284;2023-03-18T15:06:30;5.47;;;4.00;;
12603;SDS011;6367;52.508;13.284;2023-03-18T15:08:59;5.50;;;2.93;;
12603;SDS011;6367;52.508;13.284;2023-03-18T15:11:28;4.57;;;3.60;;
12603;SDS011;6367;52.508;13.284;2023-03-18T15:14:01;4.30;;;3.30;;
12603;SDS011;6367;52.508;13.284;2023-03-18T15:16:34;3.90;;;3.50;;
12603;SDS011;6367;52.508;13.284;2023-03-18T15:19:00;3.87;;;3.23;;
12603;SDS011;6367;52.508;13.284;2023-03-18T15:21:30;3.53;;;3.23;;
12603;SDS011;6367;52.508;13.284;2023-03-18T15:24:02;4.80;;;3.13;;
12603;SDS011;6367;52.508;13.284;2023-03-18T15:26:35;3.83;;;3.03;;
12603;SDS011;6367;52.508;13.284;2023-03-18T15:31:49;4.63;;;3.30;;
12603;SDS011;6367;52.508;13.284;2023-03-18T15:34:20;2.77;;;2.57;;
12603;SDS011;6367;52.508;13.284;2023-03-18T15:37:00;2.70;;;2.50;;
12603;SDS011;6367;52.508;13.284;2023-03-18T15:39:32;2.90;;;2.60;;
12603;SDS011;6367;52.508;13.284;2023-03-18T15:42:00;3.40;;;2.67;;
12603;SDS011;6367;52.508;13.284;2023-03-18T15:44:30;2.73;;;2.47;;
12603;SDS011;6367;52.508;13.284;2023-03-18T15:47:15;3.10;;;2.60;;
12603;SDS011;6367;52.508;13.284;2023-03-18T15:49:55;3.40;;;3.10;;
12603;SDS011;6367;52.508;13.284;2023-03-18T15:52:30;6.67;;;3.90;;
12603;SDS011;6367;52.508;13.284;2023-03-18T15:55:19;4.40;;;4.00;;
12603;SDS011;6367;52.508;13.284;2023-03-18T15:57:46;5.17;;;2.90;;
12603;SDS011;6367;52.508;13.284;2023-03-18T16:00:12;3.93;;;2.90;;
12603;SDS011;6367;52.508;13.284;2023-03-18T16:02:38;3.30;;;2.63;;
12603;SDS011;6367;52.508;13.284;2023-03-18T16:05:13;3.90;;;3.20;;
12603;SDS011;6367;52.508;13.284;2023-03-18T16:07:39;2.50;;;2.30;;
12603;SDS011;6367;52.508;13.284;2023-03-18T16:10:05;2.50;;;2.17;;
12603;SDS011;6367;52.508;13.284;2023-03-18T16:12:33;2.37;;;2.17;;
12603;SDS011;6367;52.508;13.284;2023-03-18T16:15:00;2.50;;;2.17;;
12603;SDS011;6367;52.508;13.284;2023-03-18T16:17:28;3.13;;;2.03;;
12603;SDS011;6367;52.508;13.284;2023-03-18T16:19:57;2.50;;;2.20;;
12603;SDS011;6367;52.508;13.284;2023-03-18T16:22:23;2.50;;;2.30;;
12603;SDS011;6367;52.508;13.284;2023-03-18T16:24:49;2.30;;;2.10;;
12603;SDS011;6367;52.508;13.284;2023-03-18T16:27:57;2.00;;;1.77;;
12603;SDS011;6367;52.508;13.284;2023-03-18T16:30:06;4.13;;;2.10;;
12603;SDS011;6367;52.508;13.284;2023-03-18T16:32:52;2.87;;;1.97;;
12603;SDS011;6367;52.508;13.284;2023-03-18T16:35:22;3.80;;;2.30;;
12603;SDS011;6367;52.508;13.284;2023-03-18T16:37:54;3.03;;;1.90;;
12603;SDS011;6367;52.508;13.284;2023-03-18T16:40:24;2.23;;;1.80;;
12603;SDS011;6367;52.508;13.284;2023-03-18T16:42:52;2.30;;;2.10;;
12603;SDS011;6367;52.508;13.284;2023-03-18T16:45:28;2.97;;;2.10;;
12603;SDS011;6367;52.508;13.284;2023-03-18T16:47:57;2.30;;;1.97;;
12603;SDS011;6367;52.508;13.284;2023-03-18T16:50:26;2.37;;;2.03;;
12603;SDS011;6367;52.508;13.284;2023-03-18T16:52:54;2.10;;;1.87;;
12603;SDS011;6367;52.508;13.284;2023-03-18T16:55:20;1.70;;;1.60;;
12603;SDS011;6367;52.508;13.284;2023-03-18T16:57:54;2.23;;;1.90;;
12603;SDS011;6367;52.508;13.284;2023-03-18T17:00:24;3.43;;;2.60;;
12603;SDS011;6367;52.508;13.284;2023-03-18T17:02:56;2.57;;;1.77;;
12603;SDS011;6367;52.508;13.284;2023-03-18T17:05:23;3.77;;;2.83;;
12603;SDS011;6367;52.508;13.284;2023-03-18T17:07:49;10.97;;;6.83;;
12603;SDS011;6367;52.508;13.284;2023-03-18T17:10:17;10.73;;;6.17;;
12603;SDS011;6367;52.508;13.284;2023-03-18T17:12:54;70.33;;;46.77;;
12603;SDS011;6367;52.508;13.284;2023-03-18T17:15:33;73.50;;;50.13;;
12603;SDS011;6367;52.508;13.284;2023-03-18T17:18:01;53.60;;;39.47;;